Jefferson, North Carolina
Current Conditions -  °F | °C
As of 10:35 AM on Friday 28 Nov 2014 (Local Time) from KGEV Reporting Station
Clear Clear  
Wind Chill: 16°   Ceiling: Unl
Heat Index: 26°   Visibility: 10mi
Dew Point: 13°   Wind: 10mph
Humidity: 59%   Direction: 260°W
Pressure: 30.26"   Gusts: NA
Location:  36.42°N, 81.47°W
Report Text: KGEV 281535Z AUTO 26009KT 10SM CLR M03/M10 A3026 RMK AO2 T10351105
Loading
Personal Weather Stations






























Interactive Weather Map New forecast layout! Learn more

10-Day Weather Forecast

Advertisements
Track Severe Weather on mobile